Time,TemperatureF,DewpointF,PressureIn,WindDirection,WindDirectionDegrees,WindSpeedMPH,WindSpeedGustMPH,Humidity,HourlyPrecipIn,Conditions,Clouds,dailyrainin,SolarRadiationWatts/m^2,SoftwareType,DateUTC
2013-02-01 00:11:00,47.0,45.0,-100.00,East,86,5.0,9.0,91,0.00,,,0.01,0.000000,,2013-02-01 10:11:00,
2013-02-01 00:21:00,47.0,45.0,-100.00,East,86,5.0,9.0,91,0.00,,,0.01,0.000000,,2013-02-01 10:21:00,
2013-02-01 00:31:00,47.0,45.0,-100.00,East,86,5.0,9.0,91,0.00,,,0.01,0.000000,,2013-02-01 10:31:00,
2013-02-01 00:42:00,47.0,45.0,-100.00,East,86,5.0,9.0,91,0.00,,,0.01,0.000000,,2013-02-01 10:42:00,
2013-02-01 01:11:00,46.0,39.0,-100.00,East,81,5.0,9.0,76,0.00,,,0.01,0.000000,,2013-02-01 11:11:00,
2013-02-01 01:21:00,46.0,39.0,-100.00,East,81,5.0,9.0,76,0.00,,,0.01,0.000000,,2013-02-01 11:21:00,
2013-02-01 01:32:00,46.0,39.0,-100.00,East,81,5.0,9.0,76,0.00,,,0.01,0.000000,,2013-02-01 11:32:00,
2013-02-01 01:41:00,46.0,39.0,-100.00,East,81,5.0,9.0,76,0.00,,,0.01,0.000000,,2013-02-01 11:41:00,
2013-02-01 02:12:00,46.0,40.0,-100.00,ENE,65,5.0,8.0,78,0.00,,,0.01,0.000000,,2013-02-01 12:12:00,
2013-02-01 02:22:00,46.0,40.0,-100.00,ENE,65,5.0,8.0,78,0.00,,,0.01,0.000000,,2013-02-01 12:22:00,
2013-02-01 02:32:00,46.0,40.0,-100.00,ENE,65,5.0,8.0,78,0.00,,,0.01,0.000000,,2013-02-01 12:32:00,
2013-02-01 02:42:00,46.0,40.0,-100.00,ENE,65,5.0,8.0,78,0.00,,,0.01,0.000000,,2013-02-01 12:42:00,
2013-02-01 03:11:00,47.0,35.0,-100.00,East,81,0.0,7.0,64,0.00,,,0.01,0.000000,,2013-02-01 13:11:00,
2013-02-01 03:21:00,47.0,35.0,-100.00,East,81,0.0,7.0,64,0.00,,,0.01,0.000000,,2013-02-01 13:21:00,
2013-02-01 03:32:00,47.0,35.0,-100.00,East,81,0.0,7.0,64,0.00,,,0.01,0.000000,,2013-02-01 13:32:00,
2013-02-01 03:42:00,47.0,35.0,-100.00,East,81,0.0,7.0,64,0.00,,,0.01,0.000000,,2013-02-01 13:42:00,
2013-02-01 04:11:00,45.0,30.0,-100.00,East,101,0.0,0.0,55,0.00,,,0.01,0.000000,,2013-02-01 14:11:00,
2013-02-01 04:21:00,45.0,30.0,-100.00,East,101,0.0,0.0,55,0.00,,,0.01,0.000000,,2013-02-01 14:21:00,
2013-02-01 04:32:00,45.0,30.0,-100.00,East,101,0.0,0.0,55,0.00,,,0.01,0.000000,,2013-02-01 14:32:00,
2013-02-01 04:42:00,45.0,30.0,-100.00,East,101,0.0,0.0,55,0.00,,,0.01,0.000000,,2013-02-01 14:42:00,
2013-02-01 05:12:00,47.0,35.0,-100.00,ENE,73,0.0,0.0,62,0.00,,,-99.99,0.000000,,2013-02-01 15:12:00,
2013-02-01 05:21:00,47.0,35.0,-100.00,ENE,73,0.0,0.0,62,0.00,,,-99.99,0.000000,,2013-02-01 15:21:00,
2013-02-01 05:32:00,47.0,35.0,-100.00,ENE,73,0.0,0.0,62,0.00,,,-99.99,0.000000,,2013-02-01 15:32:00,
2013-02-01 05:42:00,47.0,35.0,-100.00,ENE,73,0.0,0.0,62,0.00,,,-99.99,0.000000,,2013-02-01 15:42:00,
2013-02-01 06:11:00,47.0,32.0,-100.00,East,88,0.0,0.0,55,0.00,,,0.01,0.000000,,2013-02-01 16:11:00,
2013-02-01 06:22:00,47.0,32.0,-100.00,East,88,0.0,0.0,55,0.00,,,0.01,0.000000,,2013-02-01 16:22:00,
2013-02-01 06:32:00,47.0,32.0,-100.00,East,88,0.0,0.0,55,0.00,,,0.01,0.000000,,2013-02-01 16:32:00,
2013-02-01 06:42:00,47.0,32.0,-100.00,East,88,0.0,0.0,55,0.00,,,0.01,0.000000,,2013-02-01 16:42:00,
2013-02-01 07:11:00,49.0,17.0,-100.00,ESE,114,0.0,0.0,28,0.00,,,0.01,0.000000,,2013-02-01 17:11:00,
2013-02-01 07:22:00,49.0,17.0,-100.00,ESE,114,0.0,0.0,28,0.00,,,0.01,0.000000,,2013-02-01 17:22:00,
2013-02-01 07:32:00,49.0,17.0,-100.00,ESE,114,0.0,0.0,28,0.00,,,0.01,0.000000,,2013-02-01 17:32:00,
2013-02-01 07:41:00,49.0,17.0,-100.00,ESE,114,0.0,0.0,28,0.00,,,0.01,0.000000,,2013-02-01 17:41:00,
2013-02-01 08:12:00,48.0,22.0,-100.00,East,94,0.0,0.0,35,0.00,,,0.01,9.000000,,2013-02-01 18:12:00,
2013-02-01 08:22:00,48.0,22.0,-100.00,East,94,0.0,0.0,35,0.00,,,0.01,9.000000,,2013-02-01 18:22:00,
2013-02-01 08:31:00,48.0,22.0,-100.00,East,94,0.0,0.0,35,0.00,,,0.01,9.000000,,2013-02-01 18:31:00,
2013-02-01 08:42:00,48.0,22.0,-100.00,East,94,0.0,0.0,35,0.00,,,0.01,9.000000,,2013-02-01 18:42:00,
2013-02-01 09:02:00,50.0,28.0,-100.00,ESE,113,4.0,6.0,43,0.00,,,-99.99,96.000000,,2013-02-01 19:02:00,
2013-02-01 09:11:00,50.0,28.0,-100.00,ESE,113,4.0,6.0,43,0.00,,,-99.99,96.000000,,2013-02-01 19:11:00,
2013-02-01 09:21:00,50.0,28.0,-100.00,ESE,113,4.0,6.0,43,0.00,,,-99.99,96.000000,,2013-02-01 19:21:00,
2013-02-01 09:32:00,50.0,28.0,-100.00,ESE,113,4.0,6.0,43,0.00,,,-99.99,96.000000,,2013-02-01 19:32:00,
2013-02-01 09:41:00,50.0,28.0,-100.00,ESE,113,4.0,6.0,43,0.00,,,-99.99,96.000000,,2013-02-01 19:41:00,
2013-02-01 10:11:00,60.0,26.0,-100.00,SW,220,3.0,5.0,27,0.00,,,0.01,459.000000,,2013-02-01 20:11:00,
2013-02-01 10:21:00,60.0,26.0,-100.00,SW,220,3.0,5.0,27,0.00,,,0.01,459.000000,,2013-02-01 20:21:00,
2013-02-01 10:31:00,60.0,26.0,-100.00,SW,220,3.0,5.0,27,0.00,,,0.01,459.000000,,2013-02-01 20:31:00,
2013-02-01 10:41:00,60.0,26.0,-100.00,SW,220,3.0,5.0,27,0.00,,,0.01,459.000000,,2013-02-01 20:41:00,
2013-02-01 11:11:00,60.0,26.0,-100.00,WNW,288,6.0,10.0,27,0.00,,,0.01,651.000000,,2013-02-01 21:11:00,
2013-02-01 11:21:00,60.0,26.0,-100.00,WNW,288,6.0,10.0,27,0.00,,,0.01,651.000000,,2013-02-01 21:21:00,
2013-02-01 11:31:00,60.0,26.0,-100.00,WNW,288,6.0,10.0,27,0.00,,,0.01,651.000000,,2013-02-01 21:31:00,
2013-02-01 11:41:00,60.0,26.0,-100.00,WNW,288,6.0,10.0,27,0.00,,,0.01,651.000000,,2013-02-01 21:41:00,
2013-02-01 12:11:00,58.0,50.0,-100.00,NW,326,5.0,10.0,76,0.00,,,0.01,789.000000,,2013-02-01 22:11:00,
2013-02-01 12:21:00,58.0,50.0,-100.00,NW,326,5.0,10.0,76,0.00,,,0.01,789.000000,,2013-02-01 22:21:00,
2013-02-01 12:32:00,58.0,50.0,-100.00,NW,326,5.0,10.0,76,0.00,,,0.01,789.000000,,2013-02-01 22:32:00,
2013-02-01 12:42:00,58.0,50.0,-100.00,NW,326,5.0,10.0,76,0.00,,,0.01,789.000000,,2013-02-01 22:42:00,
2013-02-01 13:11:00,59.0,47.0,-100.00,NW,313,6.0,10.0,64,0.00,,,0.01,795.000000,,2013-02-01 23:11:00,
2013-02-01 13:21:00,59.0,47.0,-100.00,NW,313,6.0,10.0,64,0.00,,,0.01,795.000000,,2013-02-01 23:21:00,
2013-02-01 13:31:00,59.0,47.0,-100.00,NW,313,6.0,10.0,64,0.00,,,0.01,795.000000,,2013-02-01 23:31:00,
2013-02-01 13:41:00,59.0,47.0,-100.00,NW,313,6.0,10.0,64,0.00,,,0.01,795.000000,,2013-02-01 23:41:00,
2013-02-01 14:11:00,57.0,52.0,-100.00,NW,304,6.0,10.0,83,0.00,,,0.01,750.000000,,2013-02-02 00:11:00,
2013-02-01 14:21:00,57.0,52.0,-100.00,NW,304,6.0,10.0,83,0.00,,,0.01,750.000000,,2013-02-02 00:21:00,
2013-02-01 14:32:00,57.0,52.0,-100.00,NW,304,6.0,10.0,83,0.00,,,0.01,750.000000,,2013-02-02 00:32:00,
2013-02-01 14:41:00,57.0,52.0,-100.00,NW,304,6.0,10.0,83,0.00,,,0.01,750.000000,,2013-02-02 00:41:00,
2013-02-01 15:11:00,59.0,54.0,-100.00,NW,310,5.0,9.0,82,0.00,,,0.01,652.000000,,2013-02-02 01:11:00,
2013-02-01 15:21:00,59.0,54.0,-100.00,NW,310,5.0,9.0,82,0.00,,,0.01,652.000000,,2013-02-02 01:21:00,
2013-02-01 15:31:00,59.0,54.0,-100.00,NW,310,5.0,9.0,82,0.00,,,0.01,652.000000,,2013-02-02 01:31:00,
2013-02-01 15:41:00,59.0,54.0,-100.00,NW,310,5.0,9.0,82,0.00,,,0.01,652.000000,,2013-02-02 01:41:00,
2013-02-01 16:11:00,62.0,53.0,-100.00,NW,315,5.0,10.0,72,0.00,,,0.01,488.000000,,2013-02-02 02:11:00,
2013-02-01 16:21:00,62.0,53.0,-100.00,NW,315,5.0,10.0,72,0.00,,,0.01,488.000000,,2013-02-02 02:21:00,
2013-02-01 16:31:00,62.0,53.0,-100.00,NW,315,5.0,10.0,72,0.00,,,0.01,488.000000,,2013-02-02 02:31:00,
2013-02-01 16:41:00,62.0,53.0,-100.00,NW,315,5.0,10.0,72,0.00,,,0.01,488.000000,,2013-02-02 02:41:00,
2013-02-01 17:11:00,59.0,49.0,-100.00,West,280,7.0,11.0,69,0.00,,,0.01,425.000000,,2013-02-02 03:11:00,
2013-02-01 17:21:00,59.0,49.0,-100.00,West,280,7.0,11.0,69,0.00,,,0.01,425.000000,,2013-02-02 03:21:00,
2013-02-01 17:32:00,59.0,49.0,-100.00,West,280,7.0,11.0,69,0.00,,,0.01,425.000000,,2013-02-02 03:32:00,
2013-02-01 17:42:00,59.0,49.0,-100.00,West,280,7.0,11.0,69,0.00,,,0.01,425.000000,,2013-02-02 03:42:00,
2013-02-01 18:11:00,56.0,44.0,-100.00,NW,313,3.0,8.0,64,0.00,,,0.00,229.000000,,2013-02-02 04:11:00,
2013-02-01 18:21:00,56.0,44.0,-100.00,NW,313,3.0,8.0,64,0.00,,,0.00,229.000000,,2013-02-02 04:21:00,
2013-02-01 18:32:00,56.0,44.0,-100.00,NW,313,3.0,8.0,64,0.00,,,0.00,229.000000,,2013-02-02 04:32:00,
2013-02-01 18:41:00,56.0,44.0,-100.00,NW,313,3.0,8.0,64,0.00,,,0.00,229.000000,,2013-02-02 04:41:00,
2013-02-01 19:11:00,51.0,31.0,-100.00,ESE,105,4.0,11.0,47,0.00,,,-99.99,26.000000,,2013-02-02 05:11:00,
2013-02-01 19:22:00,51.0,31.0,-100.00,ESE,105,4.0,11.0,47,0.00,,,-99.99,26.000000,,2013-02-02 05:22:00,
2013-02-01 19:33:00,51.0,31.0,-100.00,ESE,105,4.0,11.0,47,0.00,,,-99.99,26.000000,,2013-02-02 05:33:00,
2013-02-01 19:41:00,51.0,31.0,-100.00,ESE,105,4.0,11.0,47,0.00,,,-99.99,26.000000,,2013-02-02 05:41:00,
2013-02-01 20:12:00,51.0,25.0,-100.00,ESE,122,5.0,11.0,36,0.00,,,0.00,0.000000,,2013-02-02 06:12:00,
2013-02-01 20:21:00,51.0,25.0,-100.00,ESE,122,5.0,11.0,36,0.00,,,0.00,0.000000,,2013-02-02 06:21:00,
2013-02-01 20:31:00,51.0,25.0,-100.00,ESE,122,5.0,11.0,36,0.00,,,0.00,0.000000,,2013-02-02 06:31:00,
2013-02-01 20:41:00,51.0,25.0,-100.00,ESE,122,5.0,11.0,36,0.00,,,0.00,0.000000,,2013-02-02 06:41:00,
2013-02-01 21:11:00,49.0,23.0,-100.00,SE,126,4.0,9.0,36,0.00,,,0.00,0.000000,,2013-02-02 07:11:00,
2013-02-01 21:21:00,49.0,23.0,-100.00,SE,126,4.0,9.0,36,0.00,,,0.00,0.000000,,2013-02-02 07:21:00,
2013-02-01 21:31:00,49.0,23.0,-100.00,SE,126,4.0,9.0,36,0.00,,,0.00,0.000000,,2013-02-02 07:31:00,
2013-02-01 21:41:00,49.0,23.0,-100.00,SE,126,4.0,9.0,36,0.00,,,0.00,0.000000,,2013-02-02 07:41:00,
2013-02-01 22:11:00,48.0,22.0,-100.00,East,90,5.0,9.0,36,0.00,,,0.00,0.000000,,2013-02-02 08:11:00,
2013-02-01 22:21:00,48.0,22.0,-100.00,East,90,5.0,9.0,36,0.00,,,0.00,0.000000,,2013-02-02 08:21:00,
2013-02-01 22:31:00,48.0,22.0,-100.00,East,90,5.0,9.0,36,0.00,,,0.00,0.000000,,2013-02-02 08:31:00,
2013-02-01 22:41:00,48.0,22.0,-100.00,East,90,5.0,9.0,36,0.00,,,0.00,0.000000,,2013-02-02 08:41:00,
2013-02-01 23:11:00,49.0,16.0,-100.00,ENE,65,4.0,10.0,27,0.00,,,0.00,0.000000,,2013-02-02 09:11:00,
2013-02-01 23:22:00,49.0,16.0,-100.00,ENE,65,4.0,10.0,27,0.00,,,0.00,0.000000,,2013-02-02 09:22:00,
2013-02-01 23:31:00,49.0,16.0,-100.00,ENE,65,4.0,10.0,27,0.00,,,0.00,0.000000,,2013-02-02 09:31:00,
2013-02-01 23:41:00,49.0,16.0,-100.00,ENE,65,4.0,10.0,27,0.00,,,0.00,0.000000,,2013-02-02 09:41:00,